EGLLEDAC

Guest
Details From EGLL - London Heathrow
To EDAC - Altenburg Nobitz
Flight Number -
Tags Generated
Created
Modified
Stats Distance 490 nm / 907 km
Max Altitude 0 ft / 0 m
Waypoints 4
Social Downloads 0
Likes 0
Share VATSIM

Download

Looking for another format? Having issues loading an existing format? Contact us
Advertisement - Login to hide

Notes

Generated

Route

EGLL NETEX GOLAT EDAC

ID Type Via Altitude Latitude Longitude Leg Dist Tot Dist Heading (true) Name
O EGLL APT - 0 ft / 0 m 51.46477˚ -0.48695˚ - 0 nm - -
NETEX FIX - 0 ft / 0 m 51.32753˚ 6.27124˚ 253 nm 253 nm 89° / 95° -
GOLAT FIX - 0 ft / 0 m 50.91222˚ 11.93806˚ 215 nm 468 nm 94° / 99° -
O EDAC APT - 0 ft / 0 m 50.97437˚ 12.49622˚ 21 nm 489 nm 80° / 80° -

Altitude Profile

Advertisement - Login to hide

Weather


0- 5 10 15 20 25 30 35+ Temperature / ° C

Clouds and Precipitation
Forecast for 2018-05-21 12:00 UTC. Updated 7 minutes ago

Ground ~20,000 ft ~40,000 ft Winds

EGLL

Details ICAO EGLL (LHR)
Name London Heathrow
Region United Kingdom
Timezone Europe/London (UTC+1.0)
Stats Elevation 83 ft / 25 m (AMSL)
Location 51.471218° -0.460978°
Runways 2
Magnetic Variation 0.496° W

METAR

EGLL 211120Z AUTO VRB03KT 9999 NCD 22/10 Q1016

Decode

TAF

TAF EGLL 210456Z 2106/2212 04006KT 4500 HZ FEW045 BECMG 2106/2109 9999 NSW PROB40 TEMPO 2113/2118 4000 +TSRA

Decode

Departure Runways

ID Width Length Bearing (true) Bearing (mag) Surface Threshold Offset Overrun Length
09L 164 ft / 50 m 12,811 ft / 3,905 m 89.64° 90.14° Asphalt 1,004 ft / 306 m 0 ft / 0 m
09R 164 ft / 50 m 12,019 ft / 3,663 m 89.67° 90.17° Asphalt 1,007 ft / 307 m 0 ft / 0 m
27L 164 ft / 50 m 12,019 ft / 3,663 m 269.71° 270.21° Asphalt 0 ft / 0 m 69 ft / 21 m
27R 164 ft / 50 m 12,811 ft / 3,905 m 269.69° 270.19° Asphalt 0 ft / 0 m 69 ft / 21 m

EDAC

Details ICAO EDAC (AOC)
Name Altenburg Nobitz
Region Germany - Civil
Timezone Europe/Berlin (UTC+2.0)
Stats Elevation 640 ft / 195 m (AMSL)
Location 50.981816° 12.506364°
Runways 1
Magnetic Variation 3.507° E

METAR

EDAC 211050Z 09007KT 020V160 CAVOK 22/07 Q1018

Decode

TAF

Not found

Destination Runways

ID Width Length Bearing (true) Bearing (mag) Surface Threshold Offset Overrun Length
04 148 ft / 45 m 7,159 ft / 2,182 m 40.61° 37.10° Concrete 853 ft / 260 m 427 ft / 130 m
22 148 ft / 45 m 7,159 ft / 2,182 m 220.62° 217.11° Concrete 985 ft / 300 m 656 ft / 200 m

Approach Navaids

Runway Type Ident Frequency Range Bearing (true) Bearing (mag) Slope Elevation
22 Localiser IALW 108.70 MHz 18 nm / 33 km 219.96° 216.46° - 625 ft / 191 m (AMSL)
22 Glidescope IALW 108.70 MHz 10 nm / 19 km 220.61° 217.11° 3.30° 607 ft / 185 m (AMSL)